Time;durP1;ratioP1;P1;durP2;ratioP2;P2;SDS_P1;SDS_P2;PMS_P1;PMS_P2;Temp;Humidity;BMP_temperature;BMP_pressure;BME280_temperature;BME280_humidity;BME280_pressure;Samples;Min_cycle;Max_cycle;Signal;HPM_P1;HPM_P2
2021/07/26 00:01:15;;;;;;;;;;;20.80;90.30;;;;;;4362048;32;44137;-88
2021/07/26 00:03:43;;;;;;;;;;;20.80;90.30;;;;;;4349173;32;44190;-89
2021/07/26 00:06:10;;;;;;;;;;;20.80;90.20;;;;;;4361313;32;45877;-88
2021/07/26 00:08:37;;;;;;;;;;;20.80;90.20;;;;;;4361350;32;43263;-87
2021/07/26 00:11:08;;;;;;;;;;;20.80;90.10;;;;;;4349015;32;44004;-88
2021/07/26 00:13:36;;;;;;;;;;;20.90;90.10;;;;;;4361148;32;43186;-87
2021/07/26 00:16:04;;;;;;;;;;;20.90;90.10;;;;;;4362027;32;44163;-88
2021/07/26 00:18:32;;;;;;;;;;;20.90;90.10;;;;;;4349141;32;45855;-88
2021/07/26 00:20:59;;;;;;;;;;;20.90;90.10;;;;;;4361310;32;44827;-88
2021/07/26 00:23:27;;;;;;;;;;;20.80;90.10;;;;;;4348719;32;43873;-87
2021/07/26 00:25:59;;;;;;;;;;;20.80;90.10;;;;;;4362158;32;43929;-89
2021/07/26 00:28:26;;;;;;;;;;;20.80;90.20;;;;;;4362235;32;43369;-89
2021/07/26 00:30:53;;;;;;;;;;;20.80;90.20;;;;;;4361918;32;43406;-86
2021/07/26 00:33:47;;;;;;;;;;;20.70;90.20;;;;;;4361555;32;43895;-87
2021/07/26 00:36:14;;;;;;;;;;;20.70;90.30;;;;;;4360966;32;42209;-88
2021/07/26 00:38:44;;;;;;;;;;;20.70;90.30;;;;;;4348302;32;43189;-89
2021/07/26 00:41:11;;;;;;;;;;;20.70;90.30;;;;;;4361491;32;43513;-88
2021/07/26 00:43:41;;;;;;;;;;;20.70;90.30;;;;;;4361959;32;43234;-88
2021/07/26 00:46:08;;;;;;;;;;;20.70;90.30;;;;;;4362061;32;44170;-88
2021/07/26 00:48:35;;;;;;;;;;;20.70;90.30;;;;;;4360851;32;44443;-89
2021/07/26 00:51:02;;;;;;;;;;;20.70;90.30;;;;;;4360770;32;44788;-88
2021/07/26 00:53:35;;;;;;;;;;;20.60;90.30;;;;;;4347794;32;44178;-88
2021/07/26 00:56:05;;;;;;;;;;;20.70;90.30;;;;;;4361739;32;44481;-88
2021/07/26 00:58:33;;;;;;;;;;;20.60;90.30;;;;;;4361319;32;43153;-88
2021/07/26 01:01:00;;;;;;;;;;;20.70;90.20;;;;;;4361259;32;44148;-87
2021/07/26 01:03:30;;;;;;;;;;;20.70;90.30;;;;;;4348313;32;44226;-88
2021/07/26 01:05:57;;;;;;;;;;;20.60;90.20;;;;;;4361253;32;43804;-87
2021/07/26 01:08:25;;;;;;;;;;;20.60;90.30;;;;;;4348013;32;42120;-89
2021/07/26 01:10:52;;;;;;;;;;;20.60;90.30;;;;;;4347916;32;44312;-85
2021/07/26 01:13:19;;;;;;;;;;;20.50;90.30;;;;;;4361165;32;20110;-89
2021/07/26 01:15:46;;;;;;;;;;;20.50;90.30;;;;;;4347787;32;43240;-89
2021/07/26 01:18:25;;;;;;;;;;;20.50;90.30;;;;;;4360042;32;44935;-86
2021/07/26 01:20:57;;;;;;;;;;;20.50;90.30;;;;;;4347778;32;44872;-85
2021/07/26 01:23:25;;;;;;;;;;;20.50;90.30;;;;;;4347755;32;44215;-87
2021/07/26 01:25:52;;;;;;;;;;;20.50;90.30;;;;;;4360973;32;44205;-87
2021/07/26 01:28:20;;;;;;;;;;;20.50;90.30;;;;;;4361028;32;43243;-88
2021/07/26 01:30:47;;;;;;;;;;;20.50;90.40;;;;;;4347560;32;44649;-89
2021/07/26 01:33:15;;;;;;;;;;;20.40;90.40;;;;;;4359995;32;42553;-89
2021/07/26 01:35:45;;;;;;;;;;;20.40;90.40;;;;;;4360691;32;43811;-88
2021/07/26 01:38:13;;;;;;;;;;;20.40;90.50;;;;;;4360609;32;44503;-87
2021/07/26 01:40:41;;;;;;;;;;;20.40;90.50;;;;;;4360031;32;45728;-85
2021/07/26 01:43:09;;;;;;;;;;;20.30;90.90;;;;;;4360594;32;44468;-88
2021/07/26 01:45:38;;;;;;;;;;;20.30;90.60;;;;;;4359689;32;45053;-88
2021/07/26 01:48:14;;;;;;;;;;;20.30;90.60;;;;;;4360636;32;45116;-88
2021/07/26 01:50:51;;;;;;;;;;;20.30;90.70;;;;;;4360520;32;42475;-87
2021/07/26 01:53:20;;;;;;;;;;;20.20;90.70;;;;;;4359891;32;44258;-86
2021/07/26 01:55:47;;;;;;;;;;;20.20;90.70;;;;;;4347605;32;43857;-88
2021/07/26 01:58:15;;;;;;;;;;;20.20;90.80;;;;;;4360939;32;43878;-86
2021/07/26 02:00:45;;;;;;;;;;;20.10;90.80;;;;;;4359627;32;43276;-87
2021/07/26 02:03:12;;;;;;;;;;;20.10;90.90;;;;;;4346781;32;45089;-88
2021/07/26 02:05:42;;;;;;;;;;;20.10;90.90;;;;;;4360600;32;43390;-88
2021/07/26 02:08:09;;;;;;;;;;;20.10;90.90;;;;;;4359618;32;44025;-87
2021/07/26 02:10:36;;;;;;;;;;;20.10;91.00;;;;;;4346685;32;45696;-86
2021/07/26 02:13:06;;;;;;;;;;;20.10;90.90;;;;;;4360220;32;43301;-88
2021/07/26 02:15:33;;;;;;;;;;;20.10;91.00;;;;;;4360383;32;44322;-88
2021/07/26 02:18:00;;;;;;;;;;;20.10;90.90;;;;;;4360305;32;43355;-86
2021/07/26 02:20:29;;;;;;;;;;;20.10;90.90;;;;;;4347140;32;44704;-88
2021/07/26 02:22:59;;;;;;;;;;;20.10;90.90;;;;;;4360460;32;43284;-88
2021/07/26 02:25:26;;;;;;;;;;;20.10;90.90;;;;;;4359005;32;45187;-89
2021/07/26 02:27:53;;;;;;;;;;;20.10;90.90;;;;;;4360209;32;43864;-88
2021/07/26 02:30:23;;;;;;;;;;;20.10;90.90;;;;;;4359088;32;43954;-88
2021/07/26 02:32:53;;;;;;;;;;;20.10;90.90;;;;;;4360334;32;44043;-88
2021/07/26 02:35:20;;;;;;;;;;;20.00;90.90;;;;;;4346617;32;43212;-88
2021/07/26 02:37:47;;;;;;;;;;;20.00;90.90;;;;;;4360176;32;43087;-88
2021/07/26 02:40:17;;;;;;;;;;;20.00;90.90;;;;;;4360026;32;43559;-88
2021/07/26 02:42:46;;;;;;;;;;;20.00;90.90;;;;;;4346582;32;42631;-87
2021/07/26 02:45:16;;;;;;;;;;;20.00;90.90;;;;;;4346891;32;44191;-87
2021/07/26 02:47:46;;;;;;;;;;;20.00;90.80;;;;;;4358626;32;44259;-86
2021/07/26 02:50:14;;;;;;;;;;;20.10;90.90;;;;;;4358652;32;45191;-86
2021/07/26 02:52:44;;;;;;;;;;;20.00;90.90;;;;;;4359939;32;43830;-87
2021/07/26 02:55:11;;;;;;;;;;;20.00;90.90;;;;;;4358605;32;43937;-87
2021/07/26 02:57:38;;;;;;;;;;;20.00;90.90;;;;;;4346680;32;46244;-87
2021/07/26 03:00:06;;;;;;;;;;;20.00;90.90;;;;;;4346725;32;44576;-85
2021/07/26 03:02:34;;;;;;;;;;;19.90;91.00;;;;;;4358522;32;43402;-85
2021/07/26 03:05:01;;;;;;;;;;;19.90;91.00;;;;;;4358857;32;43277;-87
2021/07/26 03:07:28;;;;;;;;;;;19.80;91.10;;;;;;4359969;33;42881;-88
2021/07/26 03:09:55;;;;;;;;;;;19.80;91.20;;;;;;4360007;33;44183;-88
2021/07/26 03:12:22;;;;;;;;;;;19.80;91.20;;;;;;4359568;33;43823;-86
2021/07/26 03:14:50;;;;;;;;;;;19.80;91.20;;;;;;4360031;33;42943;-88
2021/07/26 03:17:24;;;;;;;;;;;19.70;91.20;;;;;;4346696;33;44820;-87
2021/07/26 03:19:55;;;;;;;;;;;19.70;91.30;;;;;;4346463;33;43954;-87
2021/07/26 03:22:42;;;;;;;;;;;19.70;91.30;;;;;;4358945;33;44942;-86
2021/07/26 03:25:10;;;;;;;;;;;19.70;91.40;;;;;;4360160;33;42306;-87
2021/07/26 03:27:37;;;;;;;;;;;19.70;91.40;;;;;;4346628;33;42930;-87
2021/07/26 03:30:07;;;;;;;;;;;19.60;91.40;;;;;;4359689;33;44099;-88
2021/07/26 03:32:34;;;;;;;;;;;19.60;91.40;;;;;;4359813;33;42956;-89
2021/07/26 03:35:01;;;;;;;;;;;19.60;91.50;;;;;;4359695;33;44376;-87
2021/07/26 03:37:28;;;;;;;;;;;19.50;91.50;;;;;;4359799;33;44257;-90
2021/07/26 03:39:57;;;;;;;;;;;19.50;91.60;;;;;;4359576;33;43173;-88
2021/07/26 03:42:27;;;;;;;;;;;19.50;91.70;;;;;;4359496;33;43301;-88
2021/07/26 03:44:56;;;;;;;;;;;19.50;91.70;;;;;;4359702;33;43409;-88
2021/07/26 03:47:24;;;;;;;;;;;19.50;91.70;;;;;;4359406;33;43447;-87
2021/07/26 03:49:51;;;;;;;;;;;19.40;91.70;;;;;;4346637;33;43943;-86
2021/07/26 03:52:21;;;;;;;;;;;19.40;91.70;;;;;;4345969;33;44230;-85
2021/07/26 03:54:49;;;;;;;;;;;19.50;91.80;;;;;;4346207;33;43506;-86
2021/07/26 03:57:16;;;;;;;;;;;19.40;91.80;;;;;;4359520;33;44041;-84
2021/07/26 03:59:43;;;;;;;;;;;19.40;91.90;;;;;;4359738;33;44605;-87
2021/07/26 04:02:10;;;;;;;;;;;19.30;91.90;;;;;;4358310;33;44400;-85
2021/07/26 04:04:37;;;;;;;;;;;19.30;91.90;;;;;;4346072;33;44030;-88
2021/07/26 04:07:10;;;;;;;;;;;19.30;91.90;;;;;;4361528;32;43339;-85
2021/07/26 04:09:45;;;;;;;;;;;19.30;91.90;;;;;;4349669;32;43875;-86
2021/07/26 04:12:19;;;;;;;;;;;19.30;91.90;;;;;;4361157;32;43643;-85
2021/07/26 04:14:46;;;;;;;;;;;19.20;91.90;;;;;;4348949;32;43051;-87
2021/07/26 04:17:13;;;;;;;;;;;19.20;92.00;;;;;;4362217;32;44907;-86
2021/07/26 04:19:40;;;;;;;;;;;19.20;92.00;;;;;;4362246;32;44901;-88
2021/07/26 04:22:10;;;;;;;;;;;19.20;92.00;;;;;;4360772;32;44912;-85
2021/07/26 04:24:37;;;;;;;;;;;19.10;92.10;;;;;;4361891;32;44686;-88
2021/07/26 04:27:04;;;;;;;;;;;19.10;92.10;;;;;;4349102;32;43145;-85
2021/07/26 04:29:31;;;;;;;;;;;19.10;92.10;;;;;;4362122;32;43089;-86
2021/07/26 04:32:01;;;;;;;;;;;19.10;92.10;;;;;;4348316;32;42627;-89
2021/07/26 04:34:28;;;;;;;;;;;19.10;92.20;;;;;;4362019;32;44296;-85
2021/07/26 04:36:58;;;;;;;;;;;19.10;92.20;;;;;;4361624;32;43455;-88
2021/07/26 04:39:25;;;;;;;;;;;19.10;92.30;;;;;;4348954;32;44089;-86
2021/07/26 04:41:52;;;;;;;;;;;19.10;92.30;;;;;;4361886;32;45690;-86
2021/07/26 04:44:23;;;;;;;;;;;19.10;92.30;;;;;;4361700;32;42705;-87
2021/07/26 04:46:53;;;;;;;;;;;19.20;92.30;;;;;;4361499;32;43029;-87
2021/07/26 04:49:22;;;;;;;;;;;19.20;92.20;;;;;;4361832;32;42326;-88
2021/07/26 04:51:50;;;;;;;;;;;19.20;92.20;;;;;;4361352;32;44040;-90
2021/07/26 04:54:19;;;;;;;;;;;19.20;92.20;;;;;;4348930;32;44088;-86
2021/07/26 04:56:48;;;;;;;;;;;19.30;92.20;;;;;;4361632;32;42875;-88
2021/07/26 04:59:16;;;;;;;;;;;19.20;92.20;;;;;;4361620;32;44071;-86
2021/07/26 05:01:43;;;;;;;;;;;19.20;92.30;;;;;;4348101;32;45054;-87
2021/07/26 05:04:10;;;;;;;;;;;19.20;92.30;;;;;;4362117;32;43949;-89
2021/07/26 05:06:37;;;;;;;;;;;19.10;92.30;;;;;;4361725;32;42697;-87
2021/07/26 05:09:04;;;;;;;;;;;19.10;92.40;;;;;;4361744;32;43474;-86
2021/07/26 05:11:31;;;;;;;;;;;19.10;92.80;;;;;;4361368;32;43477;-88
2021/07/26 05:14:01;;;;;;;;;;;19.10;92.50;;;;;;4348353;32;44323;-89
2021/07/26 05:16:28;;;;;;;;;;;19.10;92.50;;;;;;4361521;32;42833;-90
2021/07/26 05:18:55;;;;;;;;;;;19.10;92.50;;;;;;4360740;32;43266;-89
2021/07/26 05:21:24;;;;;;;;;;;19.10;92.60;;;;;;4361045;32;44000;-87
2021/07/26 05:23:51;;;;;;;;;;;19.10;92.60;;;;;;4361317;32;44382;-87
2021/07/26 05:26:18;;;;;;;;;;;19.10;92.70;;;;;;4361553;32;43024;-87
2021/07/26 05:28:45;;;;;;;;;;;19.10;92.70;;;;;;4360865;32;44644;-88
2021/07/26 05:31:15;;;;;;;;;;;19.00;92.70;;;;;;4360896;32;44616;-89
2021/07/26 05:33:45;;;;;;;;;;;19.00;92.70;;;;;;4361216;32;44381;-86
2021/07/26 05:36:12;;;;;;;;;;;19.00;92.80;;;;;;4360770;32;42937;-88
2021/07/26 05:38:39;;;;;;;;;;;19.00;92.80;;;;;;4361032;32;43086;-88
2021/07/26 05:41:07;;;;;;;;;;;19.00;92.90;;;;;;4361198;32;43749;-87
2021/07/26 05:43:34;;;;;;;;;;;19.00;92.80;;;;;;4360648;32;42938;-86
2021/07/26 05:46:04;;;;;;;;;;;19.10;92.90;;;;;;4360278;32;43524;-90
2021/07/26 05:48:31;;;;;;;;;;;19.00;92.90;;;;;;4347337;32;42534;-88
2021/07/26 05:50:58;;;;;;;;;;;19.00;92.90;;;;;;4360663;32;43442;-84
2021/07/26 05:53:25;;;;;;;;;;;19.00;92.90;;;;;;4347184;32;42681;-86
2021/07/26 05:55:52;;;;;;;;;;;19.00;92.90;;;;;;4360779;32;44235;-86
2021/07/26 05:58:19;;;;;;;;;;;19.00;92.90;;;;;;4360699;32;44245;-90
2021/07/26 06:00:56;;;;;;;;;;;19.00;93.00;;;;;;4360692;32;43276;-88
2021/07/26 06:03:24;;;;;;;;;;;19.00;93.00;;;;;;4360517;32;45315;-84
2021/07/26 06:05:51;;;;;;;;;;;19.00;93.10;;;;;;4360697;32;43278;-83
2021/07/26 06:08:18;;;;;;;;;;;19.00;93.00;;;;;;4360814;32;44095;-84
2021/07/26 06:10:48;;;;;;;;;;;19.00;93.10;;;;;;4346789;32;44751;-85
2021/07/26 06:13:15;;;;;;;;;;;19.00;93.00;;;;;;4360436;32;43448;-88
2021/07/26 06:15:42;;;;;;;;;;;19.00;93.00;;;;;;4347062;32;45490;-85
2021/07/26 06:18:09;;;;;;;;;;;19.00;93.00;;;;;;4348135;32;20005;-89
2021/07/26 06:20:36;;;;;;;;;;;19.00;93.00;;;;;;4346692;32;43329;-85
2021/07/26 06:23:04;;;;;;;;;;;19.00;93.00;;;;;;4360111;32;43330;-86
2021/07/26 06:25:33;;;;;;;;;;;19.00;93.00;;;;;;4360040;32;44010;-86
2021/07/26 06:28:01;;;;;;;;;;;19.10;93.10;;;;;;4346958;32;44130;-87
2021/07/26 06:30:28;;;;;;;;;;;19.10;93.10;;;;;;4360039;32;43556;-85
2021/07/26 06:32:58;;;;;;;;;;;19.10;93.10;;;;;;4346853;32;44181;-84
2021/07/26 06:35:25;;;;;;;;;;;19.10;93.10;;;;;;4360492;32;43848;-85
2021/07/26 06:37:52;;;;;;;;;;;19.10;93.10;;;;;;4360030;32;43904;-88
2021/07/26 06:40:19;;;;;;;;;;;19.10;93.10;;;;;;4360097;32;42686;-84
2021/07/26 06:42:46;;;;;;;;;;;19.10;93.10;;;;;;4359951;32;43498;-88
2021/07/26 06:45:15;;;;;;;;;;;19.10;93.00;;;;;;4346494;32;43459;-86
2021/07/26 06:47:44;;;;;;;;;;;19.10;93.10;;;;;;4346875;32;42718;-89
2021/07/26 06:50:11;;;;;;;;;;;19.10;93.10;;;;;;4346425;32;45180;-84
2021/07/26 06:52:38;;;;;;;;;;;19.10;93.10;;;;;;4360078;32;42961;-88
2021/07/26 06:55:07;;;;;;;;;;;19.10;93.20;;;;;;4359392;32;44352;-86
2021/07/26 06:57:37;;;;;;;;;;;19.10;93.10;;;;;;4359875;32;43034;-90
2021/07/26 07:00:05;;;;;;;;;;;19.10;93.10;;;;;;4360027;32;44144;-86
2021/07/26 07:02:32;;;;;;;;;;;19.20;93.10;;;;;;4359929;32;43916;-87
2021/07/26 07:05:01;;;;;;;;;;;19.20;93.10;;;;;;4360103;32;46104;-87
2021/07/26 07:07:28;;;;;;;;;;;19.20;93.10;;;;;;4359717;33;43482;-85
2021/07/26 07:09:55;;;;;;;;;;;19.20;93.10;;;;;;4346696;33;44239;-83
2021/07/26 07:12:22;;;;;;;;;;;19.20;93.00;;;;;;4359928;33;44275;-86
2021/07/26 07:14:56;;;;;;;;;;;19.20;93.00;;;;;;4360152;33;44303;-89
2021/07/26 07:17:23;;;;;;;;;;;19.20;93.00;;;;;;4359875;33;44599;-83
2021/07/26 07:19:52;;;;;;;;;;;19.20;93.00;;;;;;4360018;33;44115;-86
2021/07/26 07:22:22;;;;;;;;;;;19.20;93.00;;;;;;4358435;33;43853;-86
2021/07/26 07:24:52;;;;;;;;;;;19.20;93.00;;;;;;4346584;33;44001;-87
2021/07/26 07:27:19;;;;;;;;;;;19.20;93.00;;;;;;4346800;33;43841;-89
2021/07/26 07:30:08;;;;;;;;;;;19.20;93.00;;;;;;4349226;33;46321;-88
2021/07/26 07:32:37;;;;;;;;;;;19.20;93.00;;;;;;4358257;33;45020;-85
2021/07/26 07:35:05;;;;;;;;;;;19.20;93.00;;;;;;4359472;33;43946;-86
2021/07/26 07:37:32;;;;;;;;;;;19.20;92.90;;;;;;4359574;33;44028;-85
2021/07/26 07:40:01;;;;;;;;;;;19.20;93.00;;;;;;4346522;32;44165;-86
2021/07/26 07:42:30;;;;;;;;;;;19.20;92.90;;;;;;4362774;32;42705;-89
2021/07/26 07:44:57;;;;;;;;;;;19.20;92.90;;;;;;4362961;32;43526;-88
2021/07/26 07:47:32;;;;;;;;;;;19.20;92.90;;;;;;4349066;32;43920;-85
2021/07/26 07:50:03;;;;;;;;;;;19.20;93.30;;;;;;4361401;32;43764;-82
2021/07/26 07:52:30;;;;;;;;;;;19.20;92.90;;;;;;4348797;32;42582;-83
2021/07/26 07:54:59;;;;;;;;;;;19.20;92.90;;;;;;4361198;32;44266;-85
2021/07/26 07:57:31;;;;;;;;;;;19.30;92.90;;;;;;4362571;32;42609;-84
2021/07/26 07:59:59;;;;;;;;;;;19.30;92.90;;;;;;4361250;32;43897;-86
2021/07/26 08:02:26;;;;;;;;;;;19.30;92.80;;;;;;4361993;32;43293;-87
2021/07/26 08:04:54;;;;;;;;;;;19.30;92.80;;;;;;4348905;32;42704;-88
2021/07/26 08:07:22;;;;;;;;;;;19.30;92.80;;;;;;4349117;32;42887;-86
2021/07/26 08:09:52;;;;;;;;;;;19.30;92.80;;;;;;4361815;32;45145;-90
2021/07/26 08:12:19;;;;;;;;;;;19.30;92.80;;;;;;4348776;32;43273;-83
2021/07/26 08:14:46;;;;;;;;;;;19.30;92.80;;;;;;4348675;32;44002;-84
2021/07/26 08:17:14;;;;;;;;;;;19.30;92.80;;;;;;4362206;32;44140;-85
2021/07/26 08:19:41;;;;;;;;;;;19.40;92.80;;;;;;4361843;32;43500;-85
2021/07/26 08:22:11;;;;;;;;;;;19.40;92.80;;;;;;4361850;32;43487;-87
2021/07/26 08:24:39;;;;;;;;;;;19.40;92.70;;;;;;4361667;32;44822;-84
2021/07/26 08:27:08;;;;;;;;;;;19.40;92.70;;;;;;4348624;32;43914;-83
2021/07/26 08:29:35;;;;;;;;;;;19.40;92.70;;;;;;4362183;32;44836;-84
2021/07/26 08:32:02;;;;;;;;;;;19.50;92.70;;;;;;4361581;32;42270;-85
2021/07/26 08:34:30;;;;;;;;;;;19.40;92.70;;;;;;4348269;32;43843;-89
2021/07/26 08:36:59;;;;;;;;;;;19.40;92.60;;;;;;4360874;32;44102;-87
2021/07/26 08:39:26;;;;;;;;;;;19.50;92.60;;;;;;4362046;32;43112;-86
2021/07/26 08:41:55;;;;;;;;;;;19.50;92.60;;;;;;4360940;32;44794;-87
2021/07/26 08:44:22;;;;;;;;;;;19.50;92.70;;;;;;4348762;32;43233;-85
2021/07/26 08:46:51;;;;;;;;;;;19.50;92.60;;;;;;4360349;32;42901;-86
2021/07/26 08:49:22;;;;;;;;;;;19.60;92.60;;;;;;4348612;32;42863;-84
2021/07/26 08:51:49;;;;;;;;;;;19.60;92.60;;;;;;4347891;33;44207;-84
2021/07/26 08:54:17;;;;;;;;;;;19.50;92.60;;;;;;4347807;32;43784;-82
2021/07/26 08:56:53;;;;;;;;;;;19.60;92.60;;;;;;4361580;32;43459;-83
2021/07/26 08:59:20;;;;;;;;;;;19.60;92.50;;;;;;4361700;32;43295;-86
2021/07/26 09:01:48;;;;;;;;;;;19.60;92.50;;;;;;4348095;32;42316;-88
2021/07/26 09:04:16;;;;;;;;;;;19.70;92.40;;;;;;4347875;32;44263;-85
2021/07/26 09:06:46;;;;;;;;;;;19.70;92.40;;;;;;4360652;32;43929;-85
2021/07/26 09:09:13;;;;;;;;;;;19.70;92.50;;;;;;4348223;32;44543;-86
2021/07/26 09:11:44;;;;;;;;;;;19.70;92.40;;;;;;4361372;32;42536;-85
2021/07/26 09:14:30;;;;;;;;;;;19.70;92.40;;;;;;4361028;32;44350;-85
2021/07/26 09:16:57;;;;;;;;;;;19.70;92.40;;;;;;4348181;32;42619;-84
2021/07/26 09:19:25;;;;;;;;;;;19.80;92.40;;;;;;4347755;32;42486;-84
2021/07/26 09:21:53;;;;;;;;;;;19.80;92.30;;;;;;4360916;32;42593;-85
2021/07/26 09:24:24;;;;;;;;;;;19.80;92.30;;;;;;4359959;32;42320;-83
2021/07/26 09:26:51;;;;;;;;;;;19.80;92.20;;;;;;4361159;32;46133;-85
2021/07/26 09:29:36;;;;;;;;;;;19.90;92.20;;;;;;4361190;32;43222;-86
2021/07/26 09:32:05;;;;;;;;;;;19.80;92.20;;;;;;4347899;32;43266;-83
2021/07/26 09:34:36;;;;;;;;;;;19.90;92.20;;;;;;4347331;32;44208;-83
2021/07/26 09:37:15;;;;;;;;;;;19.80;92.20;;;;;;4360681;32;43118;-84
2021/07/26 09:39:42;;;;;;;;;;;19.80;92.10;;;;;;4360122;32;44192;-83
2021/07/26 09:42:24;;;;;;;;;;;19.90;92.20;;;;;;4360666;32;43924;-83
2021/07/26 09:44:51;;;;;;;;;;;19.80;92.20;;;;;;4347621;32;43239;-88
2021/07/26 09:47:19;;;;;;;;;;;19.90;92.20;;;;;;4347631;32;43418;-86
2021/07/26 09:49:49;;;;;;;;;;;19.90;92.20;;;;;;4359990;32;44033;-83
2021/07/26 09:52:21;;;;;;;;;;;19.90;92.20;;;;;;4347562;32;43443;-84
2021/07/26 09:54:52;;;;;;;;;;;19.90;92.20;;;;;;4361117;32;44222;-86
2021/07/26 09:57:20;;;;;;;;;;;19.90;92.10;;;;;;4347150;32;42994;-83
2021/07/26 09:59:48;;;;;;;;;;;19.90;92.10;;;;;;4360964;32;44196;-83
2021/07/26 10:02:24;;;;;;;;;;;19.90;92.10;;;;;;4360191;32;44077;-87
2021/07/26 10:04:53;;;;;;;;;;;19.90;92.10;;;;;;4360511;32;43715;-84
2021/07/26 10:07:20;;;;;;;;;;;20.00;92.00;;;;;;4360398;32;44001;-83
2021/07/26 10:09:50;;;;;;;;;;;19.90;92.00;;;;;;4360356;32;43934;-85
2021/07/26 10:12:22;;;;;;;;;;;19.90;92.00;;;;;;4360134;32;43086;-84
2021/07/26 10:14:51;;;;;;;;;;;20.00;92.10;;;;;;4360316;32;42203;-84
2021/07/26 10:17:18;;;;;;;;;;;20.00;92.00;;;;;;4360594;32;42964;-85
2021/07/26 10:19:45;;;;;;;;;;;20.00;92.00;;;;;;4360718;32;43367;-87
2021/07/26 10:22:15;;;;;;;;;;;20.00;92.00;;;;;;4360399;32;44246;-83
2021/07/26 10:24:46;;;;;;;;;;;20.00;92.00;;;;;;4360065;32;42907;-84
2021/07/26 10:27:16;;;;;;;;;;;20.00;92.00;;;;;;4360631;32;44204;-83
2021/07/26 10:29:56;;;;;;;;;;;20.00;92.00;;;;;;4359903;32;44353;-80
2021/07/26 10:32:30;;;;;;;;;;;20.10;92.00;;;;;;4347092;32;43286;-85
2021/07/26 10:34:57;;;;;;;;;;;20.10;92.00;;;;;;4360357;32;44533;-81
2021/07/26 10:37:39;;;;;;;;;;;20.10;91.80;;;;;;4360037;32;42873;-82
2021/07/26 10:40:27;;;;;;;;;;;20.10;91.80;;;;;;4360510;32;43210;-85
2021/07/26 10:42:58;;;;;;;;;;;20.10;91.80;;;;;;4360353;32;43900;-81
2021/07/26 10:45:31;;;;;;;;;;;20.10;91.80;;;;;;4360044;32;42981;-82
2021/07/26 10:48:17;;;;;;;;;;;20.10;91.80;;;;;;4359837;32;42492;-82
2021/07/26 10:50:47;;;;;;;;;;;20.10;91.80;;;;;;4346783;32;44005;-82
2021/07/26 10:53:37;;;;;;;;;;;20.10;91.80;;;;;;4347131;32;20460;-82
2021/07/26 10:56:06;;;;;;;;;;;20.10;91.80;;;;;;4353285;32;43226;-82
2021/07/26 10:58:39;;;;;;;;;;;20.10;91.80;;;;;;4359696;32;43826;-83
2021/07/26 11:01:22;;;;;;;;;;;20.10;91.80;;;;;;4346774;32;43945;-84
2021/07/26 11:03:50;;;;;;;;;;;20.10;91.80;;;;;;4346495;32;44167;-85
2021/07/26 11:09:18;;;;;;;;;;;20.20;91.80;;;;;;4359785;33;45705;-87
2021/07/26 11:11:48;;;;;;;;;;;20.20;91.80;;;;;;4359575;33;42959;-86
2021/07/26 11:14:15;;;;;;;;;;;20.30;91.80;;;;;;4359977;33;45741;-88
2021/07/26 11:16:49;;;;;;;;;;;20.30;91.70;;;;;;4348405;32;44136;-82
2021/07/26 11:19:35;;;;;;;;;;;20.30;91.70;;;;;;4363035;32;43518;-81
2021/07/26 11:22:06;;;;;;;;;;;20.30;91.70;;;;;;4363140;32;44040;-85
2021/07/26 11:24:39;;;;;;;;;;;20.40;91.70;;;;;;4362777;32;42796;-81
2021/07/26 11:27:07;;;;;;;;;;;20.40;91.70;;;;;;4349413;32;42716;-80
2021/07/26 11:29:34;;;;;;;;;;;20.40;91.70;;;;;;4349477;32;45459;-81
2021/07/26 11:32:04;;;;;;;;;;;20.40;91.70;;;;;;4349217;32;44183;-80
2021/07/26 11:34:35;;;;;;;;;;;20.40;91.60;;;;;;4362925;32;43965;-85
2021/07/26 11:37:07;;;;;;;;;;;20.50;91.60;;;;;;4349054;32;43145;-82
2021/07/26 11:39:47;;;;;;;;;;;20.50;91.60;;;;;;4362778;32;44792;-81
2021/07/26 11:42:19;;;;;;;;;;;20.50;91.60;;;;;;4361622;32;43511;-82
2021/07/26 11:44:51;;;;;;;;;;;20.50;91.60;;;;;;4361312;32;43937;-81
2021/07/26 11:47:32;;;;;;;;;;;20.50;91.50;;;;;;4361136;32;44163;-81
2021/07/26 11:50:00;;;;;;;;;;;20.50;91.50;;;;;;4349042;32;44168;-86
2021/07/26 11:52:27;;;;;;;;;;;20.50;91.50;;;;;;4361630;32;43512;-82
2021/07/26 11:54:58;;;;;;;;;;;20.50;91.40;;;;;;4362238;32;43301;-82
2021/07/26 11:57:29;;;;;;;;;;;20.50;91.40;;;;;;4362228;32;42290;-88
2021/07/26 12:00:05;;;;;;;;;;;20.50;91.40;;;;;;4362638;32;42669;-87
2021/07/26 12:02:33;;;;;;;;;;;20.50;91.30;;;;;;4346084;33;42663;-84
2021/07/26 12:05:01;;;;;;;;;;;20.50;91.30;;;;;;4358381;32;43443;-83
2021/07/26 12:07:39;;;;;;;;;;;20.50;91.30;;;;;;4346536;33;43482;-87
2021/07/26 12:10:07;;;;;;;;;;;20.50;91.30;;;;;;4347295;33;42873;-85
2021/07/26 12:12:42;;;;;;;;;;;20.50;91.40;;;;;;4347232;33;42659;-87
2021/07/26 12:15:22;;;;;;;;;;;20.50;91.20;;;;;;4346678;33;45230;-86
2021/07/26 12:18:02;;;;;;;;;;;20.60;91.20;;;;;;4346296;33;42943;-87
2021/07/26 12:20:30;;;;;;;;;;;20.60;91.10;;;;;;4358322;32;44287;-82
2021/07/26 12:23:00;;;;;;;;;;;20.60;91.00;;;;;;4346424;33;44774;-88
2021/07/26 12:25:30;;;;;;;;;;;20.70;91.00;;;;;;4347983;32;19997;-82
2021/07/26 12:28:03;;;;;;;;;;;20.70;91.00;;;;;;4358004;32;44253;-82
2021/07/26 12:30:34;;;;;;;;;;;20.70;91.00;;;;;;4357866;32;44162;-84
2021/07/26 12:33:06;;;;;;;;;;;20.60;90.90;;;;;;4347056;33;45031;-87
2021/07/26 12:35:33;;;;;;;;;;;20.70;91.00;;;;;;4345870;33;44172;-85
2021/07/26 12:38:05;;;;;;;;;;;20.70;91.00;;;;;;4358187;32;42308;-86
2021/07/26 12:40:33;;;;;;;;;;;20.70;91.00;;;;;;4345555;33;46115;-84
2021/07/26 12:43:10;;;;;;;;;;;20.70;91.00;;;;;;4357918;32;43895;-87
2021/07/26 12:45:41;;;;;;;;;;;20.60;90.90;;;;;;4345512;33;43171;-84
2021/07/26 12:48:15;;;;;;;;;;;20.60;90.90;;;;;;4347163;33;43535;-86
2021/07/26 12:50:46;;;;;;;;;;;20.70;91.00;;;;;;4358015;32;46155;-86
2021/07/26 12:53:14;;;;;;;;;;;20.70;91.00;;;;;;4357783;32;43883;-86
2021/07/26 12:55:42;;;;;;;;;;;20.70;91.00;;;;;;4347539;32;20005;-84
2021/07/26 12:58:15;;;;;;;;;;;20.70;91.10;;;;;;4346668;33;43095;-88
2021/07/26 13:00:42;;;;;;;;;;;20.70;91.20;;;;;;4347126;33;43610;-84
2021/07/26 13:03:15;;;;;;;;;;;20.70;91.20;;;;;;4357851;32;43906;-85
2021/07/26 13:05:45;;;;;;;;;;;20.70;91.20;;;;;;4346642;33;42583;-89
2021/07/26 13:08:20;;;;;;;;;;;20.70;91.20;;;;;;4346504;32;45861;-88
2021/07/26 13:10:48;;;;;;;;;;;20.70;91.20;;;;;;4346664;33;43222;-85
2021/07/26 13:13:18;;;;;;;;;;;20.70;91.20;;;;;;4346499;33;44106;-84
2021/07/26 13:15:46;;;;;;;;;;;20.80;91.20;;;;;;4346932;32;44983;-89
2021/07/26 13:18:13;;;;;;;;;;;20.70;91.10;;;;;;4357696;32;44849;-88
2021/07/26 13:20:41;;;;;;;;;;;20.70;91.10;;;;;;4345660;33;44253;-88
2021/07/26 13:23:11;;;;;;;;;;;20.80;91.50;;;;;;4346264;32;45718;-87
2021/07/26 13:25:39;;;;;;;;;;;20.80;91.20;;;;;;4345572;33;45122;-87
2021/07/26 13:28:06;;;;;;;;;;;20.80;91.20;;;;;;4358692;32;20411;-85
2021/07/26 13:30:33;;;;;;;;;;;20.80;91.10;;;;;;4346277;33;43798;-88
2021/07/26 13:33:07;;;;;;;;;;;20.80;91.00;;;;;;4345598;33;44652;-86
2021/07/26 13:35:35;;;;;;;;;;;20.90;91.00;;;;;;4358109;32;44824;-88
2021/07/26 13:38:03;;;;;;;;;;;20.90;90.90;;;;;;4345406;33;43538;-88
2021/07/26 13:40:30;;;;;;;;;;;20.90;91.10;;;;;;4346307;33;42626;-87
2021/07/26 13:42:57;;;;;;;;;;;21.00;91.00;;;;;;4346244;33;42758;-89
2021/07/26 13:45:27;;;;;;;;;;;21.10;91.00;;;;;;4357609;32;43316;-88
2021/07/26 13:47:59;;;;;;;;;;;21.10;90.90;;;;;;4345434;33;44488;-84
2021/07/26 13:50:26;;;;;;;;;;;21.10;90.90;;;;;;4346429;33;43822;-83
2021/07/26 13:52:53;;;;;;;;;;;21.20;90.90;;;;;;4345805;33;43044;-86
2021/07/26 13:55:25;;;;;;;;;;;21.20;90.90;;;;;;4346286;33;42740;-88
2021/07/26 13:57:55;;;;;;;;;;;21.20;90.60;;;;;;4346102;33;42807;-87
2021/07/26 14:00:30;;;;;;;;;;;21.20;90.70;;;;;;4345245;33;44020;-84
2021/07/26 14:02:57;;;;;;;;;;;21.30;90.60;;;;;;4357017;32;43834;-86
2021/07/26 14:05:27;;;;;;;;;;;21.30;90.70;;;;;;4344712;33;45582;-85
2021/07/26 14:07:54;;;;;;;;;;;21.40;90.70;;;;;;4345248;33;44890;-85
2021/07/26 14:10:21;;;;;;;;;;;21.40;90.50;;;;;;4345686;33;44093;-85
2021/07/26 14:12:52;;;;;;;;;;;21.40;90.50;;;;;;4345505;33;36303;-89
2021/07/26 14:15:20;;;;;;;;;;;21.50;90.50;;;;;;4356864;32;44364;-85
2021/07/26 14:17:47;;;;;;;;;;;21.50;90.40;;;;;;4344287;33;44059;-89
2021/07/26 14:20:14;;;;;;;;;;;21.50;90.40;;;;;;4344675;33;45277;-87
2021/07/26 14:22:44;;;;;;;;;;;21.50;90.40;;;;;;4344238;33;42968;-80
2021/07/26 14:25:11;;;;;;;;;;;21.60;90.40;;;;;;4344721;33;44768;-85
2021/07/26 14:27:38;;;;;;;;;;;21.60;90.20;;;;;;4344852;33;43284;-90
2021/07/26 14:30:06;;;;;;;;;;;21.50;90.10;;;;;;4345201;33;44174;-89
2021/07/26 14:32:34;;;;;;;;;;;21.50;90.20;;;;;;4357303;32;44192;-90